sensor_id;sensor_type;location;lat;lon;timestamp;pressure;altitude;pressure_sealevel;temperature;humidity
21129;BME280;10722;51.910;8.352;2023-05-19T00:02:21;101915.50;;;8.06;84.71
21129;BME280;10722;51.910;8.352;2023-05-19T00:05:07;101934.13;;;8.00;85.98
21129;BME280;10722;51.910;8.352;2023-05-19T00:07:56;101928.75;;;7.96;86.62
21129;BME280;10722;51.910;8.352;2023-05-19T00:10:42;101926.03;;;7.93;87.16
21129;BME280;10722;51.910;8.352;2023-05-19T00:13:28;101924.19;;;7.90;87.57
21129;BME280;10722;51.910;8.352;2023-05-19T00:16:14;101929.72;;;7.80;88.10
21129;BME280;10722;51.910;8.352;2023-05-19T00:19:01;101920.16;;;7.77;88.70
21129;BME280;10722;51.910;8.352;2023-05-19T00:21:47;101927.34;;;7.67;88.62
21129;BME280;10722;51.910;8.352;2023-05-19T00:24:33;101921.16;;;7.45;89.44
21129;BME280;10722;51.910;8.352;2023-05-19T00:27:18;101915.44;;;7.69;90.00
21129;BME280;10722;51.910;8.352;2023-05-19T00:30:04;101919.41;;;7.80;89.21
21129;BME280;10722;51.910;8.352;2023-05-19T00:32:50;101901.00;;;7.90;88.70
21129;BME280;10722;51.910;8.352;2023-05-19T00:35:35;101895.19;;;7.94;88.02
21129;BME280;10722;51.910;8.352;2023-05-19T00:38:20;101884.13;;;7.97;87.56
21129;BME280;10722;51.910;8.352;2023-05-19T00:41:06;101883.50;;;7.83;87.35
21129;BME280;10722;51.910;8.352;2023-05-19T00:43:52;101883.63;;;7.86;87.29
21129;BME280;10722;51.910;8.352;2023-05-19T00:46:37;101881.06;;;7.50;87.71
21129;BME280;10722;51.910;8.352;2023-05-19T00:49:22;101891.31;;;7.67;88.56
21129;BME280;10722;51.910;8.352;2023-05-19T00:52:07;101900.59;;;7.63;89.00
21129;BME280;10722;51.910;8.352;2023-05-19T00:54:54;101896.75;;;7.73;89.44
21129;BME280;10722;51.910;8.352;2023-05-19T00:57:40;101897.81;;;7.60;89.86
21129;BME280;10722;51.910;8.352;2023-05-19T01:00:26;101910.84;;;7.27;90.62
21129;BME280;10722;51.910;8.352;2023-05-19T01:03:12;101916.03;;;7.29;91.65
21129;BME280;10722;51.910;8.352;2023-05-19T01:05:57;101915.84;;;7.42;92.68
21129;BME280;10722;51.910;8.352;2023-05-19T01:08:43;101916.88;;;7.46;92.88
21129;BME280;10722;51.910;8.352;2023-05-19T01:11:30;101908.41;;;7.30;92.79
21129;BME280;10722;51.910;8.352;2023-05-19T01:14:16;101925.34;;;6.92;93.55
21129;BME280;10722;51.910;8.352;2023-05-19T01:20:07;101928.13;;;6.95;95.80
21129;BME280;10722;51.910;8.352;2023-05-19T01:26:16;101939.41;;;6.50;98.22
21129;BME280;10722;51.910;8.352;2023-05-19T01:29:41;101929.16;;;6.34;99.55
21129;BME280;10722;51.910;8.352;2023-05-19T01:32:27;101931.91;;;6.22;100.00
21129;BME280;10722;51.910;8.352;2023-05-19T01:35:15;101936.44;;;6.26;100.00
21129;BME280;10722;51.910;8.352;2023-05-19T01:38:02;101933.22;;;6.30;100.00
21129;BME280;10722;51.910;8.352;2023-05-19T01:40:49;101930.97;;;6.20;100.00
21129;BME280;10722;51.910;8.352;2023-05-19T01:43:35;101930.66;;;6.30;100.00
21129;BME280;10722;51.910;8.352;2023-05-19T01:46:21;101922.47;;;6.37;100.00
21129;BME280;10722;51.910;8.352;2023-05-19T01:49:08;101924.06;;;6.35;100.00
21129;BME280;10722;51.910;8.352;2023-05-19T01:51:53;101913.22;;;6.24;100.00
21129;BME280;10722;51.910;8.352;2023-05-19T01:54:38;101914.25;;;6.12;100.00
21129;BME280;10722;51.910;8.352;2023-05-19T02:03:36;101918.03;;;6.18;100.00
21129;BME280;10722;51.910;8.352;2023-05-19T02:06:41;101914.63;;;6.19;100.00
21129;BME280;10722;51.910;8.352;2023-05-19T02:09:51;101925.13;;;6.22;100.00
21129;BME280;10722;51.910;8.352;2023-05-19T02:12:37;101921.31;;;6.16;100.00
21129;BME280;10722;51.910;8.352;2023-05-19T02:15:24;101916.81;;;6.12;100.00
21129;BME280;10722;51.910;8.352;2023-05-19T02:18:14;101912.66;;;6.30;100.00
21129;BME280;10722;51.910;8.352;2023-05-19T02:20:59;101912.09;;;6.36;100.00
21129;BME280;10722;51.910;8.352;2023-05-19T02:23:45;101916.22;;;6.48;100.00
21129;BME280;10722;51.910;8.352;2023-05-19T02:26:30;101904.41;;;6.52;100.00
21129;BME280;10722;51.910;8.352;2023-05-19T02:29:16;101904.88;;;6.61;100.00
21129;BME280;10722;51.910;8.352;2023-05-19T02:32:01;101897.16;;;6.61;100.00
21129;BME280;10722;51.910;8.352;2023-05-19T02:34:46;101889.78;;;6.35;100.00
21129;BME280;10722;51.910;8.352;2023-05-19T02:37:32;101892.34;;;6.35;100.00
21129;BME280;10722;51.910;8.352;2023-05-19T02:40:17;101898.47;;;6.37;100.00
21129;BME280;10722;51.910;8.352;2023-05-19T02:43:02;101899.91;;;6.48;100.00
21129;BME280;10722;51.910;8.352;2023-05-19T02:45:47;101892.38;;;6.51;100.00
21129;BME280;10722;51.910;8.352;2023-05-19T02:48:33;101883.34;;;6.43;99.87
21129;BME280;10722;51.910;8.352;2023-05-19T02:51:18;101876.09;;;6.03;100.00
21129;BME280;10722;51.910;8.352;2023-05-19T02:54:03;101890.03;;;6.08;100.00
21129;BME280;10722;51.910;8.352;2023-05-19T02:56:49;101892.47;;;6.21;100.00
21129;BME280;10722;51.910;8.352;2023-05-19T02:59:34;101886.06;;;6.29;100.00
21129;BME280;10722;51.910;8.352;2023-05-19T03:02:19;101888.25;;;6.38;100.00
21129;BME280;10722;51.910;8.352;2023-05-19T03:05:05;101888.22;;;6.22;100.00
21129;BME280;10722;51.910;8.352;2023-05-19T03:07:50;101883.31;;;6.10;100.00
21129;BME280;10722;51.910;8.352;2023-05-19T03:10:36;101882.59;;;6.13;100.00
21129;BME280;10722;51.910;8.352;2023-05-19T03:13:21;101880.91;;;6.13;100.00
21129;BME280;10722;51.910;8.352;2023-05-19T03:16:07;101879.63;;;6.21;100.00
21129;BME280;10722;51.910;8.352;2023-05-19T03:18:52;101878.09;;;6.09;100.00
21129;BME280;10722;51.910;8.352;2023-05-19T03:21:37;101877.00;;;5.89;100.00
21129;BME280;10722;51.910;8.352;2023-05-19T03:24:22;101885.47;;;6.02;100.00
21129;BME280;10722;51.910;8.352;2023-05-19T03:27:08;101880.66;;;5.62;100.00
21129;BME280;10722;51.910;8.352;2023-05-19T03:29:53;101873.09;;;5.34;100.00
21129;BME280;10722;51.910;8.352;2023-05-19T03:32:39;101891.69;;;5.30;100.00
21129;BME280;10722;51.910;8.352;2023-05-19T03:35:24;101890.88;;;5.31;100.00
21129;BME280;10722;51.910;8.352;2023-05-19T03:38:09;101897.13;;;5.51;100.00
21129;BME280;10722;51.910;8.352;2023-05-19T03:40:55;101894.88;;;5.41;100.00
21129;BME280;10722;51.910;8.352;2023-05-19T03:43:40;101896.00;;;5.31;100.00
21129;BME280;10722;51.910;8.352;2023-05-19T03:46:25;101896.19;;;5.49;100.00
21129;BME280;10722;51.910;8.352;2023-05-19T03:49:11;101903.00;;;5.64;100.00
21129;BME280;10722;51.910;8.352;2023-05-19T03:51:56;101896.13;;;5.79;100.00
21129;BME280;10722;51.910;8.352;2023-05-19T03:54:42;101904.88;;;5.82;100.00
21129;BME280;10722;51.910;8.352;2023-05-19T03:57:27;101893.13;;;5.86;100.00
21129;BME280;10722;51.910;8.352;2023-05-19T04:00:13;101891.38;;;5.70;100.00
21129;BME280;10722;51.910;8.352;2023-05-19T04:02:58;101891.84;;;5.33;100.00
21129;BME280;10722;51.910;8.352;2023-05-19T04:05:44;101905.22;;;5.13;100.00
21129;BME280;10722;51.910;8.352;2023-05-19T04:08:30;101909.91;;;5.35;100.00
21129;BME280;10722;51.910;8.352;2023-05-19T04:11:15;101913.72;;;5.27;100.00
21129;BME280;10722;51.910;8.352;2023-05-19T04:14:00;101916.97;;;5.09;100.00
21129;BME280;10722;51.910;8.352;2023-05-19T04:16:46;101922.91;;;5.08;100.00
21129;BME280;10722;51.910;8.352;2023-05-19T04:19:31;101918.13;;;5.14;100.00
21129;BME280;10722;51.910;8.352;2023-05-19T04:22:16;101927.16;;;5.23;100.00
21129;BME280;10722;51.910;8.352;2023-05-19T04:25:01;101931.03;;;5.46;100.00
21129;BME280;10722;51.910;8.352;2023-05-19T04:27:46;101928.84;;;5.67;100.00
21129;BME280;10722;51.910;8.352;2023-05-19T04:30:32;101917.88;;;5.85;100.00
21129;BME280;10722;51.910;8.352;2023-05-19T04:33:17;101911.00;;;5.84;100.00
21129;BME280;10722;51.910;8.352;2023-05-19T04:36:04;101904.25;;;6.01;100.00
21129;BME280;10722;51.910;8.352;2023-05-19T04:38:49;101909.16;;;6.13;100.00
21129;BME280;10722;51.910;8.352;2023-05-19T04:41:34;101899.13;;;5.87;100.00
21129;BME280;10722;51.910;8.352;2023-05-19T04:44:20;101903.47;;;5.88;100.00
21129;BME280;10722;51.910;8.352;2023-05-19T04:47:08;101906.56;;;5.97;100.00
21129;BME280;10722;51.910;8.352;2023-05-19T04:49:54;101909.97;;;6.12;100.00
21129;BME280;10722;51.910;8.352;2023-05-19T04:52:39;101919.31;;;6.26;100.00
21129;BME280;10722;51.910;8.352;2023-05-19T04:55:25;101910.72;;;6.26;100.00
21129;BME280;10722;51.910;8.352;2023-05-19T04:58:10;101913.53;;;6.31;100.00
21129;BME280;10722;51.910;8.352;2023-05-19T05:00:55;101914.66;;;6.36;100.00
21129;BME280;10722;51.910;8.352;2023-05-19T05:03:41;101907.56;;;6.15;100.00
21129;BME280;10722;51.910;8.352;2023-05-19T05:06:27;101921.09;;;6.44;100.00
21129;BME280;10722;51.910;8.352;2023-05-19T05:09:13;101918.31;;;6.72;100.00
21129;BME280;10722;51.910;8.352;2023-05-19T05:11:59;101910.72;;;6.91;100.00
21129;BME280;10722;51.910;8.352;2023-05-19T05:14:45;101896.31;;;7.11;100.00
21129;BME280;10722;51.910;8.352;2023-05-19T05:17:30;101889.66;;;7.33;100.00
21129;BME280;10722;51.910;8.352;2023-05-19T05:20:16;101876.34;;;7.59;100.00
21129;BME280;10722;51.910;8.352;2023-05-19T05:23:02;101866.84;;;7.76;100.00
21129;BME280;10722;51.910;8.352;2023-05-19T05:25:47;101859.31;;;7.99;98.59
21129;BME280;10722;51.910;8.352;2023-05-19T05:28:32;101862.94;;;8.22;97.14
21129;BME280;10722;51.910;8.352;2023-05-19T05:31:18;101849.16;;;8.39;96.46
21129;BME280;10722;51.910;8.352;2023-05-19T05:34:03;101836.91;;;8.55;95.33
21129;BME280;10722;51.910;8.352;2023-05-19T05:36:48;101844.03;;;8.60;95.15
21129;BME280;10722;51.910;8.352;2023-05-19T05:39:34;101841.81;;;8.89;94.22
21129;BME280;10722;51.910;8.352;2023-05-19T05:42:19;101829.72;;;9.09;93.06
21129;BME280;10722;51.910;8.352;2023-05-19T05:45:05;101814.50;;;9.15;91.77
21129;BME280;10722;51.910;8.352;2023-05-19T05:47:51;101805.63;;;9.08;91.07
21129;BME280;10722;51.910;8.352;2023-05-19T05:50:36;101811.22;;;9.19;91.18
21129;BME280;10722;51.910;8.352;2023-05-19T05:53:24;101825.53;;;9.54;91.43
21129;BME280;10722;51.910;8.352;2023-05-19T05:56:10;101820.63;;;9.60;91.06
21129;BME280;10722;51.910;8.352;2023-05-19T05:58:55;101816.91;;;9.76;90.33
21129;BME280;10722;51.910;8.352;2023-05-19T06:01:41;101801.16;;;9.93;89.03
21129;BME280;10722;51.910;8.352;2023-05-19T06:04:26;101800.84;;;10.07;88.29
21129;BME280;10722;51.910;8.352;2023-05-19T06:07:12;101801.00;;;10.35;88.27
21129;BME280;10722;51.910;8.352;2023-05-19T06:09:57;101787.69;;;10.73;87.48
21129;BME280;10722;51.910;8.352;2023-05-19T06:12:42;101768.25;;;10.86;86.38
21129;BME280;10722;51.910;8.352;2023-05-19T06:15:28;101766.72;;;11.18;85.05
21129;BME280;10722;51.910;8.352;2023-05-19T06:18:13;101764.19;;;11.49;84.10
21129;BME280;10722;51.910;8.352;2023-05-19T06:20:59;101749.13;;;11.65;83.18
21129;BME280;10722;51.910;8.352;2023-05-19T06:23:44;101737.31;;;12.04;81.29
21129;BME280;10722;51.910;8.352;2023-05-19T06:26:29;101681.63;;;12.24;77.70
21129;BME280;10722;51.910;8.352;2023-05-19T06:29:15;101659.97;;;12.57;75.57
21129;BME280;10722;51.910;8.352;2023-05-19T06:32:00;101627.00;;;12.91;72.99
21129;BME280;10722;51.910;8.352;2023-05-19T06:34:45;101596.38;;;13.15;70.98
21129;BME280;10722;51.910;8.352;2023-05-19T06:37:31;101591.69;;;13.40;70.15
21129;BME280;10722;51.910;8.352;2023-05-19T06:40:16;101591.31;;;13.65;69.58
21129;BME280;10722;51.910;8.352;2023-05-19T06:43:01;101587.44;;;13.89;68.69
21129;BME280;10722;51.910;8.352;2023-05-19T06:45:46;101563.47;;;14.10;67.04
21129;BME280;10722;51.910;8.352;2023-05-19T06:48:32;101526.56;;;14.35;64.75
21129;BME280;10722;51.910;8.352;2023-05-19T06:51:17;101512.88;;;14.47;63.33
21129;BME280;10722;51.910;8.352;2023-05-19T06:54:02;101480.75;;;14.47;62.13
21129;BME280;10722;51.910;8.352;2023-05-19T06:56:47;101488.13;;;14.75;61.42
21129;BME280;10722;51.910;8.352;2023-05-19T06:59:33;101494.47;;;14.99;60.66
21129;BME280;10722;51.910;8.352;2023-05-19T07:02:18;101493.75;;;15.12;60.55
21129;BME280;10722;51.910;8.352;2023-05-19T07:05:04;101482.56;;;15.22;59.99
21129;BME280;10722;51.910;8.352;2023-05-19T07:07:49;101501.72;;;15.28;59.88
21129;BME280;10722;51.910;8.352;2023-05-19T07:10:34;101488.84;;;15.41;59.35
21129;BME280;10722;51.910;8.352;2023-05-19T07:13:20;101469.66;;;15.35;58.05
21129;BME280;10722;51.910;8.352;2023-05-19T07:16:05;101474.19;;;15.56;57.52
21129;BME280;10722;51.910;8.352;2023-05-19T07:18:50;101482.06;;;15.57;57.81
21129;BME280;10722;51.910;8.352;2023-05-19T07:21:35;101477.09;;;15.86;57.17
21129;BME280;10722;51.910;8.352;2023-05-19T07:24:21;101477.09;;;15.88;56.77
21129;BME280;10722;51.910;8.352;2023-05-19T07:27:06;101470.22;;;15.99;56.04
21129;BME280;10722;51.910;8.352;2023-05-19T07:29:51;101450.16;;;15.90;55.08
21129;BME280;10722;51.910;8.352;2023-05-19T07:32:36;101440.69;;;16.06;54.40
21129;BME280;10722;51.910;8.352;2023-05-19T07:35:22;101423.22;;;15.93;53.43
21129;BME280;10722;51.910;8.352;2023-05-19T07:38:07;101425.06;;;16.12;53.29
21129;BME280;10722;51.910;8.352;2023-05-19T07:40:53;101441.78;;;16.42;53.38
21129;BME280;10722;51.910;8.352;2023-05-19T07:43:38;101453.22;;;16.75;53.39
21129;BME280;10722;51.910;8.352;2023-05-19T07:46:23;101423.63;;;16.70;52.16
21129;BME280;10722;51.910;8.352;2023-05-19T07:49:09;101414.13;;;16.87;51.52
21129;BME280;10722;51.910;8.352;2023-05-19T07:51:54;101382.66;;;16.64;50.46
21129;BME280;10722;51.910;8.352;2023-05-19T07:54:39;101397.44;;;16.53;50.61
21129;BME280;10722;51.910;8.352;2023-05-19T07:57:24;101435.91;;;16.92;51.15
21129;BME280;10722;51.910;8.352;2023-05-19T08:00:10;101409.78;;;16.98;50.02
21129;BME280;10722;51.910;8.352;2023-05-19T08:02:56;101428.94;;;16.99;49.91
21129;BME280;10722;51.910;8.352;2023-05-19T08:05:42;101433.28;;;17.03;50.12
21129;BME280;10722;51.910;8.352;2023-05-19T08:08:27;101442.06;;;17.31;50.14
21129;BME280;10722;51.910;8.352;2023-05-19T08:11:14;101441.22;;;17.60;49.46
21129;BME280;10722;51.910;8.352;2023-05-19T08:14:02;101406.34;;;17.50;48.13
21129;BME280;10722;51.910;8.352;2023-05-19T08:16:50;101429.03;;;17.57;49.06
21129;BME280;10722;51.910;8.352;2023-05-19T08:19:35;101439.50;;;17.86;48.91
21129;BME280;10722;51.910;8.352;2023-05-19T08:22:21;101387.97;;;18.08;46.84
21129;BME280;10722;51.910;8.352;2023-05-19T08:25:06;101380.97;;;18.17;46.37
21129;BME280;10722;51.910;8.352;2023-05-19T08:27:51;101368.72;;;18.19;45.72
21129;BME280;10722;51.910;8.352;2023-05-19T08:30:36;101354.00;;;17.68;46.27
21129;BME280;10722;51.910;8.352;2023-05-19T08:33:22;101378.44;;;17.66;46.98
21129;BME280;10722;51.910;8.352;2023-05-19T08:36:07;101399.38;;;17.78;47.67
21129;BME280;10722;51.910;8.352;2023-05-19T08:38:53;101407.94;;;18.32;47.49
21129;BME280;10722;51.910;8.352;2023-05-19T08:41:38;101357.41;;;18.09;46.33
21129;BME280;10722;51.910;8.352;2023-05-19T08:44:23;101353.91;;;18.10;45.47
21129;BME280;10722;51.910;8.352;2023-05-19T08:47:09;101351.16;;;18.45;44.54
21129;BME280;10722;51.910;8.352;2023-05-19T08:50:01;101339.75;;;18.54;44.07
21129;BME280;10722;51.910;8.352;2023-05-19T08:53:03;101359.75;;;18.70;44.79
21129;BME280;10722;51.910;8.352;2023-05-19T08:56:18;101308.41;;;18.32;43.43
21129;BME280;10722;51.910;8.352;2023-05-19T08:59:05;101342.25;;;18.72;44.12
21129;BME280;10722;51.910;8.352;2023-05-19T09:01:52;101340.47;;;18.84;44.09
21129;BME280;10722;51.910;8.352;2023-05-19T09:04:38;101308.31;;;18.49;43.43
21129;BME280;10722;51.910;8.352;2023-05-19T09:07:25;101320.69;;;18.27;44.05
21129;BME280;10722;51.910;8.352;2023-05-19T09:10:11;101343.22;;;18.57;44.51
21129;BME280;10722;51.910;8.352;2023-05-19T09:12:56;101318.63;;;18.80;43.65
21129;BME280;10722;51.910;8.352;2023-05-19T09:15:43;101351.00;;;18.76;44.84
21129;BME280;10722;51.910;8.352;2023-05-19T09:18:29;101325.66;;;18.76;43.85
21129;BME280;10722;51.910;8.352;2023-05-19T09:21:14;101330.59;;;19.18;43.82
21129;BME280;10722;51.910;8.352;2023-05-19T09:24:04;101321.13;;;19.01;43.77
21129;BME280;10722;51.910;8.352;2023-05-19T09:26:50;101321.16;;;18.95;43.71
21129;BME280;10722;51.910;8.352;2023-05-19T09:29:35;101318.25;;;19.31;43.88
21129;BME280;10722;51.910;8.352;2023-05-19T09:32:24;101279.56;;;18.45;43.52
21129;BME280;10722;51.910;8.352;2023-05-19T09:35:11;101330.03;;;18.73;44.51
21129;BME280;10722;51.910;8.352;2023-05-19T09:37:56;101310.84;;;18.63;44.56
21129;BME280;10722;51.910;8.352;2023-05-19T09:40:41;101331.56;;;19.04;45.09
21129;BME280;10722;51.910;8.352;2023-05-19T09:43:31;101316.38;;;19.43;44.26
21129;BME280;10722;51.910;8.352;2023-05-19T09:46:16;101320.31;;;19.87;44.08
21129;BME280;10722;51.910;8.352;2023-05-19T09:49:08;101275.34;;;19.36;43.38
21129;BME280;10722;51.910;8.352;2023-05-19T09:51:54;101266.25;;;18.78;43.50
21129;BME280;10722;51.910;8.352;2023-05-19T09:54:39;101296.75;;;18.86;44.02
21129;BME280;10722;51.910;8.352;2023-05-19T09:57:25;101295.56;;;19.25;44.10
21129;BME280;10722;51.910;8.352;2023-05-19T10:00:11;101279.28;;;19.79;42.82
21129;BME280;10722;51.910;8.352;2023-05-19T10:02:59;101251.69;;;19.41;42.65
21129;BME280;10722;51.910;8.352;2023-05-19T10:05:53;101259.09;;;18.96;43.49
21129;BME280;10722;51.910;8.352;2023-05-19T10:08:39;101267.31;;;19.50;42.93
21129;BME280;10722;51.910;8.352;2023-05-19T10:11:29;101288.88;;;19.81;43.40
21129;BME280;10722;51.910;8.352;2023-05-19T10:14:25;101246.22;;;19.59;42.41
21129;BME280;10722;51.910;8.352;2023-05-19T10:17:12;101277.50;;;19.81;43.24
21129;BME280;10722;51.910;8.352;2023-05-19T10:19:59;101229.94;;;19.30;42.32
21129;BME280;10722;51.910;8.352;2023-05-19T10:22:45;101255.00;;;19.58;42.89
21129;BME280;10722;51.910;8.352;2023-05-19T10:25:32;101228.66;;;19.67;42.44
21129;BME280;10722;51.910;8.352;2023-05-19T10:28:21;101233.38;;;20.07;42.26
21129;BME280;10722;51.910;8.352;2023-05-19T10:31:15;101215.97;;;20.02;41.66
21129;BME280;10722;51.910;8.352;2023-05-19T10:37:15;101213.97;;;19.48;42.36
21129;BME280;10722;51.910;8.352;2023-05-19T10:40:09;101214.75;;;18.65;41.86
21129;BME280;10722;51.910;8.352;2023-05-19T10:46:05;101256.97;;;19.38;42.38
21129;BME280;10722;51.910;8.352;2023-05-19T10:48:50;101265.44;;;19.63;42.42
21129;BME280;10722;51.910;8.352;2023-05-19T10:51:36;101267.22;;;20.32;41.92
21129;BME280;10722;51.910;8.352;2023-05-19T10:54:41;101234.97;;;20.81;40.27
21129;BME280;10722;51.910;8.352;2023-05-19T10:57:27;101192.50;;;19.89;39.48
21129;BME280;10722;51.910;8.352;2023-05-19T11:00:33;101202.69;;;20.14;40.06
21129;BME280;10722;51.910;8.352;2023-05-19T11:03:18;101183.81;;;19.86;39.16
21129;BME280;10722;51.910;8.352;2023-05-19T11:09:16;101201.41;;;20.40;39.12
21129;BME280;10722;51.910;8.352;2023-05-19T11:12:21;101194.19;;;20.52;39.09
21129;BME280;10722;51.910;8.352;2023-05-19T11:15:15;101188.50;;;20.80;39.07
21129;BME280;10722;51.910;8.352;2023-05-19T11:18:01;101198.91;;;21.37;38.59
21129;BME280;10722;51.910;8.352;2023-05-19T11:20:54;101152.91;;;21.09;37.34
21129;BME280;10722;51.910;8.352;2023-05-19T11:23:40;101141.41;;;20.12;38.68
21129;BME280;10722;51.910;8.352;2023-05-19T11:26:38;101147.84;;;19.20;39.82
21129;BME280;10722;51.910;8.352;2023-05-19T11:29:24;101172.75;;;19.58;39.85
21129;BME280;10722;51.910;8.352;2023-05-19T11:32:10;101149.78;;;19.02;40.23
21129;BME280;10722;51.910;8.352;2023-05-19T11:34:56;101162.88;;;19.04;40.59
21129;BME280;10722;51.910;8.352;2023-05-19T11:37:42;101176.34;;;19.51;40.03
21129;BME280;10722;51.910;8.352;2023-05-19T11:40:29;101176.94;;;19.77;40.00
21129;BME280;10722;51.910;8.352;2023-05-19T11:43:14;101196.97;;;20.45;39.82
21129;BME280;10722;51.910;8.352;2023-05-19T11:45:59;101212.53;;;20.58;40.72
21129;BME280;10722;51.910;8.352;2023-05-19T11:48:46;101169.41;;;19.45;40.74
21129;BME280;10722;51.910;8.352;2023-05-19T11:51:31;101151.94;;;19.44;39.55
21129;BME280;10722;51.910;8.352;2023-05-19T11:54:17;101199.84;;;20.28;39.97
21129;BME280;10722;51.910;8.352;2023-05-19T11:57:02;101172.41;;;20.98;38.24
21129;BME280;10722;51.910;8.352;2023-05-19T11:59:48;101177.50;;;21.53;37.42
21129;BME280;10722;51.910;8.352;2023-05-19T12:02:34;101161.28;;;21.73;37.25
21129;BME280;10722;51.910;8.352;2023-05-19T12:05:21;101146.56;;;21.64;36.87
21129;BME280;10722;51.910;8.352;2023-05-19T12:08:06;101105.81;;;21.40;36.24
21129;BME280;10722;51.910;8.352;2023-05-19T12:10:52;101136.75;;;22.09;36.45
21129;BME280;10722;51.910;8.352;2023-05-19T12:13:37;101102.03;;;21.92;35.29
21129;BME280;10722;51.910;8.352;2023-05-19T12:16:23;101101.84;;;21.19;36.35
21129;BME280;10722;51.910;8.352;2023-05-19T12:19:17;101149.28;;;21.59;37.68
21129;BME280;10722;51.910;8.352;2023-05-19T12:22:02;101098.06;;;21.74;36.05
21129;BME280;10722;51.910;8.352;2023-05-19T12:24:48;101093.38;;;21.87;35.61
21129;BME280;10722;51.910;8.352;2023-05-19T12:27:35;101087.00;;;21.60;35.98
21129;BME280;10722;51.910;8.352;2023-05-19T12:30:25;101109.59;;;21.68;36.39
21129;BME280;10722;51.910;8.352;2023-05-19T12:33:13;101066.88;;;21.93;34.49
21129;BME280;10722;51.910;8.352;2023-05-19T12:35:59;101050.47;;;21.82;34.44
21129;BME280;10722;51.910;8.352;2023-05-19T12:38:44;101066.53;;;22.07;34.92
21129;BME280;10722;51.910;8.352;2023-05-19T12:41:29;101056.78;;;21.75;35.25
21129;BME280;10722;51.910;8.352;2023-05-19T12:44:15;101080.44;;;21.76;35.97
21129;BME280;10722;51.910;8.352;2023-05-19T12:47:03;101093.94;;;21.20;37.10
21129;BME280;10722;51.910;8.352;2023-05-19T12:52:45;101113.88;;;21.32;38.27
21129;BME280;10722;51.910;8.352;2023-05-19T12:55:39;101123.50;;;21.75;37.72
21129;BME280;10722;51.910;8.352;2023-05-19T12:58:24;101125.75;;;22.29;37.18
21129;BME280;10722;51.910;8.352;2023-05-19T13:01:18;101029.75;;;22.04;34.50
21129;BME280;10722;51.910;8.352;2023-05-19T13:04:03;101096.81;;;22.62;36.04
21129;BME280;10722;51.910;8.352;2023-05-19T13:06:51;101026.78;;;21.44;35.17
21129;BME280;10722;51.910;8.352;2023-05-19T13:09:39;101082.19;;;21.38;36.99
21129;BME280;10722;51.910;8.352;2023-05-19T13:12:25;101057.88;;;20.80;37.26
21129;BME280;10722;51.910;8.352;2023-05-19T13:15:10;101102.56;;;20.84;38.89
21129;BME280;10722;51.910;8.352;2023-05-19T13:17:55;101110.69;;;21.60;38.03
21129;BME280;10722;51.910;8.352;2023-05-19T13:20:43;101075.59;;;21.16;37.11
21129;BME280;10722;51.910;8.352;2023-05-19T13:23:30;101072.06;;;21.17;36.87
21129;BME280;10722;51.910;8.352;2023-05-19T13:26:16;101075.19;;;21.76;36.42
21129;BME280;10722;51.910;8.352;2023-05-19T13:29:02;101052.56;;;21.27;36.10
21129;BME280;10722;51.910;8.352;2023-05-19T13:31:48;101067.13;;;21.01;36.75
21129;BME280;10722;51.910;8.352;2023-05-19T13:34:33;101079.44;;;20.99;37.93
21129;BME280;10722;51.910;8.352;2023-05-19T13:37:20;101109.47;;;21.33;38.18
21129;BME280;10722;51.910;8.352;2023-05-19T13:40:05;101098.50;;;21.11;37.68
21129;BME280;10722;51.910;8.352;2023-05-19T13:42:51;101095.00;;;20.65;38.04
21129;BME280;10722;51.910;8.352;2023-05-19T13:45:36;101101.84;;;20.74;38.30
21129;BME280;10722;51.910;8.352;2023-05-19T13:48:22;101117.13;;;20.53;39.95
21129;BME280;10722;51.910;8.352;2023-05-19T13:51:10;101116.88;;;20.67;39.32
21129;BME280;10722;51.910;8.352;2023-05-19T13:53:58;101110.44;;;20.84;39.02
21129;BME280;10722;51.910;8.352;2023-05-19T13:56:45;101098.19;;;20.30;39.38
21129;BME280;10722;51.910;8.352;2023-05-19T13:59:31;101112.88;;;19.89;40.16
21129;BME280;10722;51.910;8.352;2023-05-19T14:02:15;101138.22;;;19.91;41.10
21129;BME280;10722;51.910;8.352;2023-05-19T14:05:01;101154.47;;;20.17;41.25
21129;BME280;10722;51.910;8.352;2023-05-19T14:07:46;101138.88;;;20.04;40.96
21129;BME280;10722;51.910;8.352;2023-05-19T14:10:31;101155.69;;;19.94;41.10
21129;BME280;10722;51.910;8.352;2023-05-19T14:13:17;101132.34;;;19.73;40.58
21129;BME280;10722;51.910;8.352;2023-05-19T14:16:19;101135.66;;;19.87;40.61
21129;BME280;10722;51.910;8.352;2023-05-19T14:19:04;101125.22;;;19.82;40.34
21129;BME280;10722;51.910;8.352;2023-05-19T14:21:49;101118.63;;;20.12;39.53
21129;BME280;10722;51.910;8.352;2023-05-19T14:24:34;101084.38;;;20.19;38.42
21129;BME280;10722;51.910;8.352;2023-05-19T14:27:21;101144.03;;;20.13;40.60
21129;BME280;10722;51.910;8.352;2023-05-19T14:30:06;101162.28;;;20.21;41.29
21129;BME280;10722;51.910;8.352;2023-05-19T14:32:53;101144.41;;;19.86;41.01
21129;BME280;10722;51.910;8.352;2023-05-19T14:35:39;101159.56;;;19.67;41.20
21129;BME280;10722;51.910;8.352;2023-05-19T14:38:25;101146.59;;;19.50;41.19
21129;BME280;10722;51.910;8.352;2023-05-19T14:41:12;101145.16;;;19.26;41.62
21129;BME280;10722;51.910;8.352;2023-05-19T14:43:57;101169.53;;;19.34;41.78
21129;BME280;10722;51.910;8.352;2023-05-19T14:46:43;101152.16;;;19.25;41.68
21129;BME280;10722;51.910;8.352;2023-05-19T14:49:29;101140.91;;;19.14;41.34
21129;BME280;10722;51.910;8.352;2023-05-19T14:52:14;101148.63;;;19.30;41.11
21129;BME280;10722;51.910;8.352;2023-05-19T14:54:59;101162.34;;;19.50;41.39
21129;BME280;10722;51.910;8.352;2023-05-19T14:57:44;101166.53;;;19.68;41.34